Bochem Mumbai — VRHJ8 — position and weather

sailwx.info

Track history (hours):
 
Tides and Currents Weather Stations Pressure Air Temp Water Temp Dewpoint Dewpoint Depression Visibility Wind Speed Wind Dir Waves Ship Positions

Bochem Mumbai

Last reported at 2014-Oct-17 23:30 UTC. Time now 2014-Nov-25 20:55 UTC.
Position N 34°21' E 021°37'.
Warning: this ship's position is 38 days out of date.

Length 171 m; draft 11.3 m.

Type: Tanker. MMSI: 477932400.

Date/timePositionNaut miles runAvg speedWind from/ knotsBaromVisibWave heightAir tempDewpointWater temp
2014-Oct-17 23:30N 34°21' E 021°37'2512.6
2014-Oct-17 21:33N 34°29' E 021°09'1412.8
2014-Oct-17 20:28N 34°33' E 020°53'1112.6
2014-Oct-17 19:33N 34°37' E 020°40'3912.7
2014-Oct-17 16:28N 34°49' E 019°54'1112.5
2014-Oct-17 15:33N 34°53' E 019°41'1312.6
2014-Oct-17 14:31N 34°57' E 019°26'1312.7
2014-Oct-17 13:29N 35°01' E 019°11'1212.8
2014-Oct-17 12:33N 35°04' E 018°57'14212.8
2014-Oct-17 01:28N 35°49' E 016°11'1312.3
2014-Oct-17 00:25N 35°53' E 015°56'1112.5
2014-Oct-16 23:34N 35°56' E 015°43'1312.7
2014-Oct-16 22:33N 35°60' E 015°28'1312.6
2014-Oct-16 21:33N 36°04' E 015°13'1312.7
2014-Oct-16 20:33N 36°08' E 014°58'1212.5
2014-Oct-16 19:33N 36°11' E 014°44'1312.6
2014-Oct-16 18:33N 36°16' E 014°29'1312.7
2014-Oct-16 17:33N 36°19' E 014°14'1312.5
2014-Oct-16 16:33N 36°23' E 013°59'1312.4
2014-Oct-16 15:31N 36°27' E 013°44'1212.5
2014-Oct-16 14:33N 36°31' E 013°30'1212.3
2014-Oct-16 13:33N 36°35' E 013°15'1212.1
2014-Oct-16 12:33N 36°39' E 013°01'1212.1
2014-Oct-16 11:33N 36°42' E 012°46'1212.1
2014-Oct-16 10:33N 36°46' E 012°32'  
2014-Oct-13 13:26N 35°60' W 005°17'  
Track history (hours):
 
Tides and Currents Weather Stations Pressure Air Temp Water Temp Dewpoint Dewpoint Depression Visibility Wind Speed Wind Dir Waves Ship Positions

Bochem Mumbai

Last reported at 2014-Oct-17 23:30 UTC. Time now 2014-Nov-25 20:56 UTC.
Position N 34°21' E 021°37'.
Warning: this ship's position is 38 days out of date.

Length 171 m; draft 11.3 m.

Type: Tanker. MMSI: 477932400.

Date/timePositionNaut miles runAvg speedWind from/ knotsBaromVisibWave heightAir tempDewpointWater temp
2014-Oct-17 23:30N 34°21' E 021°37'2512.6
2014-Oct-17 21:33N 34°29' E 021°09'1412.8
2014-Oct-17 20:28N 34°33' E 020°53'1112.6
2014-Oct-17 19:33N 34°37' E 020°40'3912.7
2014-Oct-17 16:28N 34°49' E 019°54'1112.5
2014-Oct-17 15:33N 34°53' E 019°41'1312.6
2014-Oct-17 14:31N 34°57' E 019°26'1312.7
2014-Oct-17 13:29N 35°01' E 019°11'1212.8
2014-Oct-17 12:33N 35°04' E 018°57'14212.8
2014-Oct-17 01:28N 35°49' E 016°11'1312.3
2014-Oct-17 00:25N 35°53' E 015°56'1112.5
2014-Oct-16 23:34N 35°56' E 015°43'1312.7
2014-Oct-16 22:33N 35°60' E 015°28'1312.6
2014-Oct-16 21:33N 36°04' E 015°13'1312.7
2014-Oct-16 20:33N 36°08' E 014°58'1212.5
2014-Oct-16 19:33N 36°11' E 014°44'1312.6
2014-Oct-16 18:33N 36°16' E 014°29'1312.7
2014-Oct-16 17:33N 36°19' E 014°14'1312.5
2014-Oct-16 16:33N 36°23' E 013°59'1312.4
2014-Oct-16 15:31N 36°27' E 013°44'1212.5
2014-Oct-16 14:33N 36°31' E 013°30'1212.3
2014-Oct-16 13:33N 36°35' E 013°15'1212.1
2014-Oct-16 12:33N 36°39' E 013°01'1212.1
2014-Oct-16 11:33N 36°42' E 012°46'1212.1
2014-Oct-16 10:33N 36°46' E 012°32'  
2014-Oct-13 13:26N 35°60' W 005°17'  

Dump ship's entire track history